ADDS METAR Data INFO
IDs: Format: Raw Decoded Include TAF

Data at: 1558 UTC 12 Dec 2017

KMKL 121553Z 32015G21KT 10SM BKN039 07/M02 A3018 RMK AO2 SLP220 T00721022
KMKL 121453Z 35017G22KT 10SM SCT032 SCT042 07/M01 A3016 RMK AO2 SLP213 T00721011 53028
KMKL 121353Z 35014G18KT 10SM BKN047 06/01 A3013 RMK AO2 SLP202 T00610006
KMKL 121253Z 34008KT 10SM FEW050 06/01 A3010 RMK AO2 SLP194 T00560006
KMKL 121153Z AUTO 35010KT 10SM OVC050 07/01 A3007 RMK AO2 SLP184 T00720011 10100 20072 53019
KMKL 121053Z AUTO 34015G20KT 10SM OVC055 08/01 A3004 RMK AO2 SLP173 T00780011
KMKL 120953Z AUTO 33012KT 10SM OVC060 08/01 A3002 RMK AO2 SLP165 T00830006
KMKL 120853Z AUTO 33011G22KT 10SM OVC060 09/01 A3002 RMK AO2 SLP163 T00940006 53013
KMKL 120753Z AUTO 32010KT 10SM BKN065 09/M01 A3000 RMK AO2 SLP157 T00941006
KMKL 120653Z AUTO 31009KT 10SM CLR 09/M01 A2998 RMK AO2 SLP151 T00941011
KMKL 120553Z AUTO 30008KT 10SM CLR 09/M02 A2998 RMK AO2 SLP150 T00941022 10144 20078 401831028 51005
KMKL 120453Z AUTO 29005KT 10SM CLR 09/M03 A2997 RMK AO2 SLP149 T00891028
KMKL 120353Z AUTO 30005KT 10SM CLR 10/M03 A2998 RMK AO2 SLP152 T01001028
KMKL 120253Z AUTO 33012KT 10SM CLR 12/M01 A2996 RMK AO2 SLP146 T01171011 53027
KMKL 120153Z AUTO 26009G18KT 10SM CLR 12/01 A2993 RMK AO2 SLP134 T01220011
KMKL 120053Z AUTO 22009KT 10SM CLR 13/00 A2989 RMK AO2 SLP122 T01330000
KMKL 112353Z 22009KT 10SM CLR 14/M02 A2988 RMK AO2 SLP120 T01441017 10183 20139 55010
KMKL 112253Z 21008KT 10SM CLR 15/M02 A2988 RMK AO2 SLP119 T01501022
KMKL 112153Z 22011G19KT 10SM CLR 17/M03 A2989 RMK AO2 SLP121 T01721028
KMKL 112053Z 22012G19KT 10SM CLR 18/M02 A2991 RMK AO2 SLP129 T01781022 56045
KMKL 111953Z 21012G17KT 10SM CLR 18/M02 A2994 RMK AO2 SLP139 T01831017
KMKL 111853Z 22010KT 10SM CLR 17/M02 A2999 RMK AO2 SLP156 T01721017
KMKL 111753Z 25014G19KT 10SM CLR 16/M02 A3005 RMK AO2 SLP175 T01611017 10161 21017 58032
KMKL 111653Z 23007G17KT 10SM CLR 14/M01 A3009 RMK AO2 SLP190 T01391011
KMKL 111553Z 21006KT 10SM CLR 11/M01 A3012 RMK AO2 SLP202 T01061006
KMKL 111453Z 22005KT 10SM CLR 08/01 A3014 RMK AO2 SLP209 T00780006 58001
KMKL 111353Z 21004KT 10SM CLR 02/00 A3015 RMK AO2 SLP211 T00220000
KMKL 111253Z 21003KT 10SM CLR 00/M02 A3015 RMK AO2 SLP211 T00001022
KMKL 111153Z AUTO 21005KT 10SM CLR 01/M02 A3015 RMK AO2 SLP210 T00061022 10061 21028 56006
KMKL 111053Z AUTO 17003KT 10SM CLR M03/M04 A3015 RMK AO2 SLP212 T10281039
KMKL 110953Z AUTO 00000KT 10SM CLR M02/M03 A3015 RMK AO2 SLP212 T10171033
KMKL 110853Z AUTO 23003KT 10SM CLR 02/M02 A3016 RMK AO2 SLP215 T00171017 58001
KMKL 110753Z AUTO 20004KT 10SM CLR 01/M02 A3017 RMK AO2 SLP216 T00061022
KMKL 110653Z AUTO 21003KT 10SM CLR 04/M02 A3017 RMK AO2 SLP216 T00441017
KMKL 110553Z AUTO 25007KT 10SM CLR 06/M01 A3017 RMK AO2 SLP216 T00611011 10078 20050 401171083 58003
KMKL 110453Z AUTO 22008G16KT 10SM CLR 07/M01 A3017 RMK AO2 SLP218 T00721011